createdAt,value
2023-02-12T00:01:21.770Z,992.88
2023-02-12T00:06:53.530Z,992.9
2023-02-12T00:12:27.047Z,992.97
2023-02-12T00:18:02.009Z,992.98
2023-02-12T00:23:33.329Z,992.96
2023-02-12T00:29:04.896Z,993.09
2023-02-12T00:34:36.850Z,993.08
2023-02-12T00:40:08.343Z,993.16
2023-02-12T00:45:40.155Z,993.23
2023-02-12T00:51:12.244Z,993.33
2023-02-12T00:56:43.791Z,993.4
2023-02-12T01:02:16.319Z,993.46
2023-02-12T01:07:46.997Z,993.42
2023-02-12T01:13:19.096Z,993.45
2023-02-12T01:18:57.179Z,993.38
2023-02-12T01:24:27.301Z,993.48
2023-02-12T01:29:58.364Z,993.54
2023-02-12T01:35:30.106Z,993.56
2023-02-12T01:41:01.874Z,993.56
2023-02-12T01:46:34.130Z,993.66
2023-02-12T01:52:05.336Z,993.43
2023-02-12T01:57:37.218Z,993.37
2023-02-12T02:03:08.874Z,992.87
2023-02-12T02:08:40.377Z,993.23
2023-02-12T02:14:12.315Z,993.12
2023-02-12T02:19:51.027Z,993.09
2023-02-12T02:25:22.263Z,993.03
2023-02-12T02:30:53.647Z,992.85
2023-02-12T02:36:26.964Z,992.84
2023-02-12T02:41:57.202Z,992.94
2023-02-12T02:47:28.810Z,992.89
2023-02-12T02:53:00.659Z,992.88
2023-02-12T02:58:32.522Z,992.94
2023-02-12T03:04:03.956Z,992.98
2023-02-12T03:09:35.674Z,993.0
2023-02-12T03:15:07.946Z,992.99
2023-02-12T03:20:43.595Z,993.01
2023-02-12T03:26:15.344Z,993.01
2023-02-12T03:31:48.400Z,993.07
2023-02-12T03:37:18.987Z,993.1
2023-02-12T03:42:50.587Z,993.11
2023-02-12T03:48:22.308Z,993.17
2023-02-12T03:53:54.237Z,993.32
2023-02-12T03:59:26.050Z,993.36
2023-02-12T04:04:57.690Z,993.39
2023-02-12T04:10:29.388Z,993.37
2023-02-12T04:16:01.264Z,993.22
2023-02-12T04:21:39.014Z,993.11
2023-02-12T04:27:10.810Z,992.98
2023-02-12T04:32:42.402Z,993.08
2023-02-12T04:38:14.047Z,993.1
2023-02-12T04:43:46.011Z,992.68
2023-02-12T04:49:18.560Z,992.1
2023-02-12T04:54:49.196Z,992.86
2023-02-12T05:00:21.114Z,992.35
2023-02-12T05:05:52.732Z,991.69
2023-02-12T05:11:24.529Z,992.06
2023-02-12T05:16:56.124Z,992.5
2023-02-12T05:22:34.867Z,992.87
2023-02-12T05:28:06.127Z,992.54
2023-02-12T05:33:37.673Z,993.27
2023-02-12T05:39:09.449Z,993.42
2023-02-12T05:44:41.316Z,993.68
2023-02-12T05:50:13.218Z,992.98
2023-02-12T05:55:44.802Z,993.4
2023-02-12T06:01:16.729Z,993.76
2023-02-12T06:06:48.143Z,993.66
2023-02-12T06:12:19.884Z,993.65
2023-02-12T06:17:51.783Z,993.67
2023-02-12T06:23:28.334Z,993.65
2023-02-12T06:28:59.654Z,993.9
2023-02-12T06:34:31.733Z,993.82
2023-02-12T06:40:03.731Z,993.55
2023-02-12T06:45:35.110Z,993.92
2023-02-12T06:51:06.733Z,993.73
2023-02-12T06:56:37.932Z,993.35
2023-02-12T07:02:10.997Z,993.51
2023-02-12T07:07:41.571Z,993.9
2023-02-12T07:13:13.431Z,994.09
2023-02-12T07:18:45.027Z,994.34
2023-02-12T07:24:21.098Z,994.16
2023-02-12T07:29:53.062Z,994.24
2023-02-12T07:35:24.833Z,994.32
2023-02-12T07:40:56.457Z,993.74
2023-02-12T07:46:27.961Z,994.4
2023-02-12T07:51:59.679Z,994.27
2023-02-12T07:57:31.688Z,994.06
2023-02-12T08:03:03.550Z,994.34
2023-02-12T08:08:35.763Z,994.96
2023-02-12T08:14:07.091Z,994.18
2023-02-12T08:19:38.667Z,994.58
2023-02-12T08:25:16.851Z,994.54
2023-02-12T08:30:48.935Z,995.56
2023-02-12T08:36:20.300Z,995.56
2023-02-12T08:41:52.459Z,995.46
2023-02-12T08:47:24.024Z,995.96
2023-02-12T08:52:55.804Z,995.64
2023-02-12T08:58:27.336Z,995.7
2023-02-12T09:03:59.053Z,995.58
2023-02-12T09:09:30.983Z,996.12
2023-02-12T09:15:03.642Z,995.63
2023-02-12T09:20:34.292Z,995.73
2023-02-12T09:26:12.438Z,995.7
2023-02-12T09:31:44.297Z,996.25
2023-02-12T09:37:15.818Z,996.36
2023-02-12T09:42:47.488Z,996.8
2023-02-12T09:48:18.950Z,996.84
2023-02-12T09:53:50.902Z,996.57
2023-02-12T09:59:22.558Z,997.53
2023-02-12T10:05:03.227Z,997.28
2023-02-12T10:10:25.851Z,996.71
2023-02-12T10:15:58.909Z,997.43
2023-02-12T10:21:29.468Z,997.4
2023-02-12T10:27:05.892Z,997.69
2023-02-12T10:32:37.109Z,997.92
2023-02-12T10:38:09.000Z,998.63
2023-02-12T10:43:40.917Z,997.85
2023-02-12T10:49:12.586Z,996.95
2023-02-12T10:54:44.322Z,997.77
2023-02-12T11:00:15.957Z,998.22
2023-02-12T11:05:48.090Z,998.69
2023-02-12T11:11:19.853Z,997.31
2023-02-12T11:16:51.365Z,998.11
2023-02-12T11:22:23.265Z,998.09
2023-02-12T11:28:01.726Z,998.14
2023-02-12T11:33:34.409Z,998.14
2023-02-12T11:39:04.728Z,997.95
2023-02-12T11:44:36.202Z,998.3
2023-02-12T11:50:08.148Z,998.5
2023-02-12T11:55:40.112Z,998.39
2023-02-12T12:01:11.573Z,998.62
2023-02-12T12:06:43.263Z,997.75
2023-02-12T12:12:15.084Z,999.19
2023-02-12T12:17:46.704Z,997.74
2023-02-12T12:23:18.686Z,997.89
2023-02-12T12:28:56.471Z,998.49
2023-02-12T12:34:28.048Z,999.21
2023-02-12T12:39:59.951Z,999.18
2023-02-12T12:45:31.714Z,998.58
2023-02-12T12:51:03.567Z,998.91
2023-02-12T12:56:35.051Z,998.27
2023-02-12T13:02:07.119Z,999.28
2023-02-12T13:07:38.795Z,999.29
2023-02-12T13:13:10.853Z,999.43
2023-02-12T13:18:42.126Z,999.33
2023-02-12T13:24:13.928Z,998.39
2023-02-12T13:29:52.379Z,998.4
2023-02-12T13:35:23.804Z,998.54
2023-02-12T13:40:55.719Z,998.31
2023-02-12T13:46:27.299Z,998.49
2023-02-12T13:51:58.970Z,998.21
2023-02-12T13:57:30.885Z,998.18
2023-02-12T14:03:02.526Z,997.84
2023-02-12T14:08:34.383Z,997.43
2023-02-12T14:14:05.856Z,998.0
2023-02-12T14:19:37.570Z,997.2
2023-02-12T14:25:09.437Z,997.34
2023-02-12T14:30:45.492Z,997.47
2023-02-12T14:36:17.006Z,997.0
2023-02-12T14:41:49.025Z,997.11
2023-02-12T14:47:20.859Z,996.96
2023-02-12T14:52:52.441Z,997.16
2023-02-12T14:58:23.937Z,997.08
2023-02-12T15:03:55.749Z,996.93
2023-02-12T15:09:28.242Z,997.48
2023-02-12T15:14:59.352Z,997.28
2023-02-12T15:20:31.131Z,997.45
2023-02-12T15:26:02.731Z,996.77
2023-02-12T15:31:39.373Z,996.95
2023-02-12T15:37:10.972Z,997.12
2023-02-12T15:42:42.421Z,996.86
2023-02-12T15:48:14.271Z,996.74
2023-02-12T15:53:46.355Z,996.78
2023-02-12T15:59:17.534Z,996.57
2023-02-12T16:04:49.588Z,996.76
2023-02-12T16:10:21.442Z,996.54
2023-02-12T16:15:53.135Z,996.07
2023-02-12T16:21:24.453Z,996.12
2023-02-12T16:26:56.959Z,996.53
2023-02-12T16:32:32.371Z,996.35
2023-02-12T16:38:04.459Z,996.14
2023-02-12T16:43:35.882Z,995.86
2023-02-12T16:49:07.496Z,995.54
2023-02-12T16:54:39.980Z,994.83
2023-02-12T17:00:10.991Z,995.11
2023-02-12T17:05:42.850Z,994.78
2023-02-12T17:11:14.357Z,994.16
2023-02-12T17:16:46.174Z,993.96
2023-02-12T17:22:17.914Z,994.72
2023-02-12T17:27:49.472Z,994.94
2023-02-12T17:33:27.827Z,994.63
2023-02-12T17:38:59.643Z,994.83
2023-02-12T17:44:31.049Z,995.11
2023-02-12T17:50:02.933Z,995.03
2023-02-12T17:55:35.162Z,994.61
2023-02-12T18:01:06.374Z,994.17
2023-02-12T18:06:38.540Z,993.82
2023-02-12T18:12:10.435Z,993.8
2023-02-12T18:17:41.755Z,993.71
2023-02-12T18:23:13.344Z,993.49
2023-02-12T18:28:45.249Z,993.35
2023-02-12T18:34:23.095Z,993.2
2023-02-12T18:39:55.132Z,993.0
2023-02-12T18:45:26.544Z,992.76
2023-02-12T18:50:59.502Z,992.82
2023-02-12T18:56:30.288Z,992.81
2023-02-12T19:02:02.103Z,992.6
2023-02-12T19:07:34.007Z,992.51
2023-02-12T19:13:05.575Z,992.53
2023-02-12T19:18:37.486Z,992.39
2023-02-12T19:24:09.425Z,992.1
2023-02-12T19:29:40.512Z,992.17
2023-02-12T19:35:16.393Z,992.19
2023-02-12T19:40:48.140Z,992.07
2023-02-12T19:46:20.078Z,992.01
2023-02-12T19:51:51.594Z,992.02
2023-02-12T19:57:23.655Z,992.27
2023-02-12T20:02:56.134Z,992.34
2023-02-12T20:08:27.155Z,992.37
2023-02-12T20:13:58.722Z,992.23
2023-02-12T20:19:30.319Z,992.02
2023-02-12T20:25:02.416Z,992.04
2023-02-12T20:30:33.640Z,991.64
2023-02-12T20:36:09.940Z,991.83
2023-02-12T20:41:41.618Z,991.71
2023-02-12T20:47:13.671Z,991.65
2023-02-12T20:52:45.166Z,991.56
2023-02-12T20:58:17.248Z,991.54
2023-02-12T21:03:48.524Z,991.44
2023-02-12T21:09:20.315Z,991.53
2023-02-12T21:14:52.656Z,991.38
2023-02-12T21:20:23.992Z,991.46
2023-02-12T21:25:55.550Z,991.26
2023-02-12T21:31:28.105Z,990.96
2023-02-12T21:37:05.921Z,990.93
2023-02-12T21:42:37.475Z,990.91
2023-02-12T21:48:08.999Z,990.79
2023-02-12T21:53:40.685Z,990.89
2023-02-12T21:59:12.618Z,990.93
2023-02-12T22:04:44.236Z,990.63
2023-02-12T22:10:15.910Z,990.87
2023-02-12T22:15:47.599Z,990.79
2023-02-12T22:21:19.593Z,990.55
2023-02-12T22:26:51.538Z,990.0
2023-02-12T22:32:23.129Z,990.87
2023-02-12T22:38:02.195Z,990.63
2023-02-12T22:43:32.826Z,990.94
2023-02-12T22:49:04.541Z,990.88
2023-02-12T22:54:36.344Z,991.3
2023-02-12T23:00:07.764Z,991.61
2023-02-12T23:05:39.957Z,990.87
2023-02-12T23:11:12.414Z,991.61
2023-02-12T23:16:44.624Z,991.63
2023-02-12T23:22:14.780Z,991.42
2023-02-12T23:27:46.586Z,990.76
2023-02-12T23:33:18.362Z,990.96
2023-02-12T23:38:56.361Z,991.06
2023-02-12T23:44:28.122Z,990.53
2023-02-12T23:50:00.039Z,990.67
2023-02-12T23:55:31.970Z,990.72
